Time;durP1;ratioP1;P1;durP2;ratioP2;P2;SDS_P1;SDS_P2;PMS_P1;PMS_P2;Temp;Humidity;BMP_temperature;BMP_pressure;BME280_temperature;BME280_humidity;BME280_pressure;Samples;Min_cycle;Max_cycle;Signal;HPM_P1;HPM_P2
2024/03/03 00:01:35;;;;;;;13.82;8.90;;;6.80;99.90;;;;;;5030703;28;20217;-72
2024/03/03 00:04:02;;;;;;;20.55;10.05;;;6.80;99.90;;;;;;5031044;28;20226;-72
2024/03/03 00:06:28;;;;;;;20.02;8.90;;;6.80;99.90;;;;;;5030665;28;20221;-72
2024/03/03 00:08:56;;;;;;;18.67;9.77;;;6.80;99.90;;;;;;5030991;28;20216;-72
2024/03/03 00:11:23;;;;;;;13.02;8.02;;;6.80;99.90;;;;;;5031067;28;20210;-72
2024/03/03 00:13:49;;;;;;;16.15;8.80;;;6.90;99.90;;;;;;5030693;28;20222;-72
2024/03/03 00:16:17;;;;;;;16.75;9.00;;;6.90;99.90;;;;;;5030795;28;20631;-72
2024/03/03 00:18:44;;;;;;;16.13;9.50;;;6.90;99.90;;;;;;5024003;28;20217;-72
2024/03/03 00:21:14;;;;;;;23.27;10.35;;;6.90;99.90;;;;;;5030412;28;20210;-72
2024/03/03 00:23:41;;;;;;;16.40;9.55;;;6.90;99.90;;;;;;5030952;28;20776;-72
2024/03/03 00:26:08;;;;;;;17.08;9.10;;;6.90;99.90;;;;;;5030635;28;20513;-72
2024/03/03 00:28:35;;;;;;;16.17;8.80;;;6.90;99.90;;;;;;5029322;28;20229;-72
2024/03/03 00:31:01;;;;;;;16.63;8.60;;;6.90;99.90;;;;;;5030531;28;20202;-72
2024/03/03 00:33:29;;;;;;;13.60;8.98;;;6.90;99.90;;;;;;5030228;28;20221;-72
2024/03/03 00:35:56;;;;;;;21.25;9.43;;;6.90;99.90;;;;;;5030711;28;20675;-72
2024/03/03 00:38:23;;;;;;;16.20;9.15;;;6.80;99.90;;;;;;5030159;28;20709;-72
2024/03/03 00:40:49;;;;;;;18.42;10.43;;;6.80;99.90;;;;;;5030375;28;20202;-72
2024/03/03 00:43:16;;;;;;;19.98;10.05;;;6.80;99.90;;;;;;5031217;28;20202;-72
2024/03/03 00:45:43;;;;;;;29.70;12.25;;;6.90;99.90;;;;;;5031655;28;20239;-72
2024/03/03 00:48:10;;;;;;;19.75;10.52;;;6.90;99.90;;;;;;5033469;28;20202;-72
2024/03/03 00:50:38;;;;;;;14.55;8.70;;;6.90;99.90;;;;;;5031393;28;20598;-72
2024/03/03 00:53:05;;;;;;;15.98;9.45;;;6.90;99.90;;;;;;5033061;28;20206;-72
2024/03/03 00:55:31;;;;;;;19.05;9.82;;;6.90;99.90;;;;;;5031955;28;20735;-72
2024/03/03 00:57:58;;;;;;;15.88;9.50;;;6.90;99.90;;;;;;5033019;28;20202;-72
2024/03/03 01:00:25;;;;;;;16.35;9.60;;;6.80;99.90;;;;;;5032474;28;20210;-72
2024/03/03 01:02:51;;;;;;;15.77;9.18;;;6.80;99.90;;;;;;5033315;28;20225;-72
2024/03/03 01:05:18;;;;;;;15.68;9.38;;;6.80;99.90;;;;;;5032375;28;20678;-72
2024/03/03 01:07:46;;;;;;;21.10;11.52;;;6.80;99.90;;;;;;5025960;28;20205;-72
2024/03/03 01:10:13;;;;;;;19.27;9.68;;;6.80;99.90;;;;;;5032938;28;20249;-72
2024/03/03 01:12:40;;;;;;;16.55;9.63;;;6.80;99.90;;;;;;5032239;28;20671;-72
2024/03/03 01:15:07;;;;;;;19.85;11.15;;;6.80;99.90;;;;;;5033076;28;20221;-72
2024/03/03 01:17:34;;;;;;;18.25;9.68;;;6.80;99.90;;;;;;5032340;28;20632;-72
2024/03/03 01:20:00;;;;;;;16.48;8.88;;;6.80;99.90;;;;;;5032199;28;20198;-72
2024/03/03 01:22:27;;;;;;;20.25;9.30;;;6.80;99.90;;;;;;5032139;28;20216;-72
2024/03/03 01:24:55;;;;;;;19.88;9.80;;;6.80;99.90;;;;;;5032760;28;20222;-72
2024/03/03 01:27:22;;;;;;;18.52;9.68;;;6.70;99.90;;;;;;5032468;28;20209;-72
2024/03/03 01:29:49;;;;;;;16.75;9.80;;;6.70;99.90;;;;;;5032967;28;20600;-72
2024/03/03 01:32:16;;;;;;;21.13;11.38;;;6.70;99.90;;;;;;5033390;28;20210;-71
2024/03/03 01:34:43;;;;;;;15.23;8.90;;;6.60;99.90;;;;;;5032212;28;20313;-72
2024/03/03 01:37:09;;;;;;;14.95;9.32;;;6.60;99.90;;;;;;5032619;28;20269;-72
2024/03/03 01:39:38;;;;;;;17.92;9.63;;;6.60;99.90;;;;;;5031773;28;20229;-72
2024/03/03 01:42:06;;;;;;;13.95;9.40;;;6.60;99.90;;;;;;5031994;28;20206;-72
2024/03/03 01:44:33;;;;;;;15.18;8.93;;;6.50;99.90;;;;;;5031880;28;20606;-72
2024/03/03 01:47:00;;;;;;;18.52;9.95;;;6.50;99.90;;;;;;5032511;28;20201;-72
2024/03/03 01:49:29;;;;;;;25.90;11.40;;;6.40;99.90;;;;;;5031520;28;20206;-72
2024/03/03 01:51:56;;;;;;;19.75;10.93;;;6.40;99.90;;;;;;5032320;28;20206;-72
2024/03/03 01:54:23;;;;;;;16.38;8.63;;;6.30;99.90;;;;;;5031605;28;20241;-72
2024/03/03 01:56:50;;;;;;;17.13;10.65;;;6.20;99.90;;;;;;5032069;28;20218;-72
2024/03/03 01:59:18;;;;;;;19.55;10.18;;;6.20;99.90;;;;;;5031910;28;20246;-72
2024/03/03 02:01:46;;;;;;;20.23;9.98;;;6.10;99.90;;;;;;5023946;28;20231;-72
2024/03/03 02:04:13;;;;;;;17.17;10.00;;;6.10;99.90;;;;;;5031812;28;20607;-71
2024/03/03 02:06:42;;;;;;;18.20;10.60;;;6.00;99.90;;;;;;5031635;28;20209;-72
2024/03/03 02:09:10;;;;;;;20.55;9.70;;;6.00;99.90;;;;;;5031218;28;20205;-72
2024/03/03 02:11:37;;;;;;;15.27;9.10;;;5.90;99.90;;;;;;5031977;28;20655;-72
2024/03/03 02:14:04;;;;;;;17.48;8.68;;;5.90;99.90;;;;;;5031776;28;20744;-72
2024/03/03 02:16:32;;;;;;;16.35;10.40;;;5.90;99.90;;;;;;5031556;28;20267;-72
2024/03/03 02:18:59;;;;;;;20.17;11.57;;;5.80;99.90;;;;;;5031603;28;20209;-72
2024/03/03 02:21:27;;;;;;;21.08;10.45;;;5.80;99.90;;;;;;5031618;28;20213;-72
2024/03/03 02:23:53;;;;;;;18.77;9.95;;;5.80;99.90;;;;;;5031654;28;20238;-72
2024/03/03 02:26:22;;;;;;;16.65;10.32;;;5.80;99.90;;;;;;5031743;28;20206;-71
2024/03/03 02:28:51;;;;;;;19.75;10.35;;;5.70;99.90;;;;;;5023955;28;20205;-72
2024/03/03 02:31:17;;;;;;;15.30;9.95;;;5.70;99.90;;;;;;5031523;28;20686;-72
2024/03/03 02:33:44;;;;;;;18.08;9.50;;;5.70;99.90;;;;;;5031292;28;20229;-72
2024/03/03 02:36:11;;;;;;;24.17;10.88;;;5.70;99.90;;;;;;5031543;28;20225;-72
2024/03/03 02:38:42;;;;;;;26.35;10.98;;;5.70;99.90;;;;;;5031126;28;20206;-72
2024/03/03 02:41:09;;;;;;;21.30;11.55;;;5.60;99.90;;;;;;5031354;28;20217;-72
2024/03/03 02:43:36;;;;;;;19.08;10.80;;;5.60;99.90;;;;;;5031086;28;20580;-72
2024/03/03 02:46:02;;;;;;;24.65;11.65;;;5.50;99.90;;;;;;5031514;28;20210;-72
2024/03/03 02:48:29;;;;;;;22.17;11.77;;;5.50;99.90;;;;;;5030959;28;20222;-72
2024/03/03 02:50:56;;;;;;;18.13;10.98;;;5.50;99.90;;;;;;5030755;28;20206;-72
2024/03/03 02:53:22;;;;;;;16.13;10.15;;;5.40;99.90;;;;;;5031185;28;20205;-72
2024/03/03 02:55:50;;;;;;;19.50;10.80;;;5.40;99.90;;;;;;5031373;28;20212;-72
2024/03/03 02:58:17;;;;;;;18.92;10.00;;;5.40;99.90;;;;;;5031067;28;20247;-72
2024/03/03 03:00:44;;;;;;;16.88;9.57;;;5.40;99.90;;;;;;5030766;28;20201;-72
2024/03/03 03:03:11;;;;;;;17.92;11.02;;;5.40;99.90;;;;;;5031295;28;20213;-72
2024/03/03 03:05:37;;;;;;;21.75;11.32;;;5.30;99.90;;;;;;5030811;28;20221;-72
2024/03/03 03:08:05;;;;;;;19.85;10.32;;;5.30;99.90;;;;;;5031153;28;20280;-72
2024/03/03 03:10:31;;;;;;;20.40;9.50;;;5.30;99.90;;;;;;5030718;28;20612;-72
2024/03/03 03:13:00;;;;;;;19.10;10.27;;;5.20;99.90;;;;;;5031135;28;20205;-72
2024/03/03 03:15:27;;;;;;;15.48;10.00;;;5.20;99.90;;;;;;5030790;28;20226;-72
2024/03/03 03:17:53;;;;;;;18.08;9.65;;;5.20;99.90;;;;;;5030979;28;20220;-72
2024/03/03 03:20:20;;;;;;;18.23;10.93;;;5.20;99.90;;;;;;5030635;28;20220;-72
2024/03/03 03:22:46;;;;;;;17.48;10.13;;;5.20;99.90;;;;;;5030853;28;20217;-72
2024/03/03 03:25:13;;;;;;;17.10;9.70;;;5.10;99.90;;;;;;5030990;28;20615;-71
2024/03/03 03:27:41;;;;;;;23.15;11.07;;;5.10;99.90;;;;;;5030758;28;20205;-72
2024/03/03 03:30:10;;;;;;;19.23;10.60;;;5.00;99.90;;;;;;5030719;28;20292;-72
2024/03/03 03:32:36;;;;;;;18.02;9.40;;;5.00;99.90;;;;;;5030722;28;20215;-72
2024/03/03 03:35:04;;;;;;;16.33;9.68;;;5.00;99.90;;;;;;5030985;28;20713;-72
2024/03/03 03:37:31;;;;;;;18.70;10.52;;;5.00;99.90;;;;;;5030563;28;20663;-72
2024/03/03 03:39:58;;;;;;;16.55;9.77;;;4.90;99.90;;;;;;5030612;28;20235;-72
2024/03/03 03:42:24;;;;;;;16.50;11.05;;;4.90;99.90;;;;;;5030752;28;20212;-72
2024/03/03 03:44:51;;;;;;;15.23;9.70;;;4.90;99.90;;;;;;5030368;28;20612;-72
2024/03/03 03:47:20;;;;;;;17.85;10.50;;;4.90;99.90;;;;;;5030863;28;20212;-72
2024/03/03 03:49:46;;;;;;;22.08;10.35;;;4.80;99.90;;;;;;5029255;28;20297;-72
2024/03/03 03:52:13;;;;;;;20.33;10.05;;;4.80;99.90;;;;;;5030762;28;20214;-72
2024/03/03 03:54:40;;;;;;;17.90;9.82;;;4.80;99.90;;;;;;5030314;28;20610;-72
2024/03/03 03:57:06;;;;;;;15.48;10.15;;;4.80;99.90;;;;;;5030690;28;20220;-72
2024/03/03 03:59:33;;;;;;;22.27;10.48;;;4.80;99.90;;;;;;5030033;28;20210;-72
2024/03/03 04:02:03;;;;;;;16.58;8.85;;;4.70;99.90;;;;;;5030845;28;20208;-72
2024/03/03 04:04:34;;;;;;;19.95;10.27;;;4.70;99.90;;;;;;5034257;28;20632;-72
2024/03/03 04:07:01;;;;;;;17.73;9.90;;;4.70;99.90;;;;;;5028582;28;20284;-72
2024/03/03 04:09:29;;;;;;;19.70;11.75;;;4.70;99.90;;;;;;5034040;28;20205;-72
2024/03/03 04:11:56;;;;;;;16.63;10.05;;;4.70;99.90;;;;;;5034088;28;20212;-72
2024/03/03 04:14:23;;;;;;;13.52;7.93;;;4.70;99.90;;;;;;5034050;28;20606;-72
2024/03/03 04:16:50;;;;;;;17.38;9.35;;;4.70;99.90;;;;;;5033996;28;20229;-72
2024/03/03 04:19:17;;;;;;;18.33;9.50;;;4.70;99.90;;;;;;5033715;28;20296;-71
2024/03/03 04:21:45;;;;;;;14.18;10.35;;;4.70;99.90;;;;;;5033781;28;20701;-72
2024/03/03 04:24:12;;;;;;;23.08;10.80;;;4.60;99.90;;;;;;5033965;28;20225;-72
2024/03/03 04:26:38;;;;;;;16.00;9.73;;;4.60;99.90;;;;;;5033857;28;20593;-72
2024/03/03 04:29:05;;;;;;;22.80;12.70;;;4.60;99.90;;;;;;5033578;28;20210;-72
2024/03/03 04:31:33;;;;;;;22.17;11.70;;;4.70;99.90;;;;;;5033823;28;20216;-70
2024/03/03 04:33:59;;;;;;;27.10;11.90;;;4.60;99.90;;;;;;5027546;28;20257;-72
2024/03/03 04:36:26;;;;;;;20.58;11.82;;;4.60;99.90;;;;;;5033797;28;20260;-72
2024/03/03 04:38:54;;;;;;;25.48;11.30;;;4.60;99.90;;;;;;5033292;28;20229;-72
2024/03/03 04:41:21;;;;;;;22.58;9.95;;;4.60;99.90;;;;;;5033462;28;20584;-72
2024/03/03 04:43:48;;;;;;;16.00;10.05;;;4.60;99.90;;;;;;5033174;28;20697;-72
2024/03/03 04:46:13;;;;;;;20.35;10.75;;;4.60;99.90;;;;;;5033745;28;20202;-72
2024/03/03 04:48:40;;;;;;;23.57;10.53;;;4.60;99.90;;;;;;5033086;28;20208;-72
2024/03/03 04:51:07;;;;;;;17.50;9.80;;;4.60;99.90;;;;;;5033183;28;20205;-72
2024/03/03 04:53:34;;;;;;;20.15;10.60;;;4.60;99.90;;;;;;5033456;28;20236;-72
2024/03/03 04:56:03;;;;;;;17.55;10.48;;;4.60;99.90;;;;;;5027708;28;20217;-72
2024/03/03 04:58:30;;;;;;;15.98;9.65;;;4.60;99.90;;;;;;5032942;28;20231;-72
2024/03/03 05:00:57;;;;;;;21.45;11.57;;;4.60;99.90;;;;;;5032832;28;20706;-72
2024/03/03 05:03:26;;;;;;;24.38;10.40;;;4.60;99.90;;;;;;5032939;28;20209;-72
2024/03/03 05:05:52;;;;;;;21.33;10.82;;;4.60;99.90;;;;;;5032890;28;20681;-72
2024/03/03 05:08:19;;;;;;;16.95;10.93;;;4.60;99.90;;;;;;5033117;28;20694;-72
2024/03/03 05:10:46;;;;;;;19.05;10.60;;;4.70;99.90;;;;;;5032749;28;20208;-72
2024/03/03 05:13:14;;;;;;;20.35;10.27;;;4.60;99.90;;;;;;5033064;28;20212;-72
2024/03/03 05:15:40;;;;;;;16.98;9.75;;;4.70;99.90;;;;;;5032110;28;20220;-72
2024/03/03 05:18:07;;;;;;;22.42;10.35;;;4.60;99.90;;;;;;5032614;28;20218;-72
2024/03/03 05:20:34;;;;;;;25.05;11.55;;;4.60;99.90;;;;;;5032695;28;20603;-72
2024/03/03 05:23:01;;;;;;;20.02;11.40;;;4.60;99.90;;;;;;5032626;28;20209;-72
2024/03/03 05:25:27;;;;;;;18.40;9.23;;;4.60;99.90;;;;;;5032694;28;20222;-72
2024/03/03 05:27:54;;;;;;;20.42;9.98;;;4.60;99.90;;;;;;5032392;28;20206;-72
2024/03/03 05:30:22;;;;;;;25.08;11.82;;;4.60;99.90;;;;;;5032547;28;20212;-72
2024/03/03 05:32:49;;;;;;;20.40;8.80;;;4.60;99.90;;;;;;5032463;28;20590;-72
2024/03/03 05:35:16;;;;;;;22.15;10.07;;;4.50;99.90;;;;;;5032709;28;20240;-72
2024/03/03 05:37:42;;;;;;;21.77;11.25;;;4.50;99.90;;;;;;5032451;28;20228;-72
2024/03/03 05:40:10;;;;;;;17.85;10.70;;;4.50;99.90;;;;;;5032315;28;20298;-71
2024/03/03 05:42:37;;;;;;;20.67;10.43;;;4.50;99.90;;;;;;5032218;28;20215;-72
2024/03/03 05:45:05;;;;;;;16.00;10.48;;;4.50;99.90;;;;;;5032141;28;20237;-72
2024/03/03 05:47:33;;;;;;;19.75;11.73;;;4.40;99.90;;;;;;5032290;28;20211;-72
2024/03/03 05:50:00;;;;;;;21.73;11.77;;;4.40;99.90;;;;;;5032297;28;20214;-72
2024/03/03 05:52:27;;;;;;;21.58;11.25;;;4.40;99.90;;;;;;5032226;28;20656;-72
2024/03/03 05:54:53;;;;;;;17.63;10.77;;;4.40;99.90;;;;;;5031988;28;20235;-72
2024/03/03 05:57:20;;;;;;;19.13;9.45;;;4.30;99.90;;;;;;5032202;28;20721;-72
2024/03/03 05:59:47;;;;;;;22.23;10.98;;;4.40;99.90;;;;;;5034705;28;20220;-72
2024/03/03 06:02:14;;;;;;;17.67;9.98;;;4.40;99.90;;;;;;5032272;28;20208;-72
2024/03/03 06:04:43;;;;;;;23.20;11.07;;;4.40;99.90;;;;;;5032216;28;20713;-72
2024/03/03 06:07:09;;;;;;;20.85;12.00;;;4.40;99.90;;;;;;5027322;28;20229;-72
2024/03/03 06:09:36;;;;;;;18.40;9.60;;;4.30;99.90;;;;;;5031649;28;20229;-72
2024/03/03 06:12:04;;;;;;;20.13;11.35;;;4.40;99.90;;;;;;5031622;28;20220;-72
2024/03/03 06:14:31;;;;;;;25.08;11.02;;;4.40;99.90;;;;;;5031547;28;20258;-72
2024/03/03 06:16:57;;;;;;;21.92;11.48;;;4.40;99.90;;;;;;5031671;28;20213;-72
2024/03/03 06:19:24;;;;;;;19.52;10.77;;;4.40;99.90;;;;;;5031280;28;20596;-72
2024/03/03 06:21:52;;;;;;;21.63;9.57;;;4.40;99.90;;;;;;5031568;28;20214;-72
2024/03/03 06:24:19;;;;;;;19.00;11.00;;;4.40;99.90;;;;;;5031541;28;20236;-72
2024/03/03 06:26:46;;;;;;;19.40;9.98;;;4.50;99.90;;;;;;5027579;28;20216;-72
2024/03/03 06:29:13;;;;;;;21.67;10.45;;;4.60;99.90;;;;;;5031257;28;20213;-72
2024/03/03 06:31:44;;;;;;;21.63;10.65;;;4.70;99.90;;;;;;5031676;28;20239;-72
2024/03/03 06:34:11;;;;;;;22.20;11.40;;;4.80;99.90;;;;;;5026773;28;20252;-72
2024/03/03 06:36:38;;;;;;;23.27;11.60;;;4.90;99.90;;;;;;5031547;28;20201;-72
2024/03/03 06:39:10;;;;;;;17.92;11.25;;;5.00;99.90;;;;;;5030847;28;20235;-72
2024/03/03 06:41:36;;;;;;;18.60;10.45;;;5.10;99.90;;;;;;5031355;28;20205;-72
2024/03/03 06:44:03;;;;;;;18.88;11.60;;;5.20;99.90;;;;;;5030930;28;20232;-72
2024/03/03 06:46:30;;;;;;;15.25;9.73;;;5.30;99.90;;;;;;5031146;28;20206;-72
2024/03/03 06:48:56;;;;;;;20.88;11.55;;;5.40;99.90;;;;;;5030811;28;20304;-72
2024/03/03 06:51:23;;;;;;;18.63;11.52;;;5.60;99.90;;;;;;5031318;28;20642;-72
2024/03/03 06:53:50;;;;;;;21.60;11.02;;;5.70;99.90;;;;;;5031092;28;20230;-72
2024/03/03 06:56:18;;;;;;;18.33;10.70;;;5.90;99.90;;;;;;5031199;28;20217;-72
2024/03/03 06:58:46;;;;;;;15.10;9.05;;;6.00;99.90;;;;;;5027417;28;20308;-72
2024/03/03 07:01:13;;;;;;;17.10;10.40;;;6.10;99.90;;;;;;5026832;28;20214;-72
2024/03/03 07:04:04;;;;;;;15.60;10.05;;;6.30;99.90;;;;;;5030976;28;20253;-72
2024/03/03 07:06:33;;;;;;;19.67;9.77;;;6.40;99.90;;;;;;5029367;28;20238;-72
2024/03/03 07:09:00;;;;;;;18.50;11.30;;;6.50;99.90;;;;;;5030598;28;20607;-72
2024/03/03 07:11:28;;;;;;;13.60;8.90;;;6.50;99.90;;;;;;5031135;28;20214;-72
2024/03/03 07:13:55;;;;;;;17.20;9.88;;;6.60;99.90;;;;;;5030896;28;20230;-72
2024/03/03 07:16:22;;;;;;;15.68;10.63;;;6.80;99.90;;;;;;5031174;28;20218;-72
2024/03/03 07:18:48;;;;;;;19.05;8.95;;;7.00;99.90;;;;;;5030760;28;20612;-72
2024/03/03 07:21:15;;;;;;;17.60;10.20;;;7.10;99.90;;;;;;5030930;28;20221;-72
2024/03/03 07:23:42;;;;;;;16.02;9.98;;;7.40;99.90;;;;;;5030922;28;20757;-72
2024/03/03 07:26:09;;;;;;;15.73;9.98;;;7.60;99.90;;;;;;5030865;28;20213;-72
2024/03/03 07:28:37;;;;;;;17.70;9.77;;;7.80;99.90;;;;;;5030887;28;20215;-72
2024/03/03 07:31:04;;;;;;;14.98;9.20;;;7.90;99.90;;;;;;5030546;28;20667;-72
2024/03/03 07:33:31;;;;;;;18.52;9.65;;;8.00;99.90;;;;;;5030881;28;20206;-72
2024/03/03 07:35:58;;;;;;;17.30;8.63;;;7.90;99.90;;;;;;5030739;28;20698;-72
2024/03/03 07:38:25;;;;;;;17.75;9.60;;;7.90;99.90;;;;;;5033234;28;20222;-71
2024/03/03 07:40:51;;;;;;;13.85;8.88;;;7.80;99.90;;;;;;5034590;28;20217;-71
2024/03/03 07:43:18;;;;;;;19.00;9.57;;;7.60;99.90;;;;;;5034655;28;20207;-72
2024/03/03 07:45:46;;;;;;;13.75;8.63;;;7.40;99.90;;;;;;5030539;28;20219;-71
2024/03/03 07:48:13;;;;;;;13.40;8.15;;;7.30;99.90;;;;;;5034443;28;20201;-69
2024/03/03 07:50:40;;;;;;;11.20;8.00;;;7.20;99.90;;;;;;5034543;28;20220;-71
2024/03/03 07:53:07;;;;;;;12.35;7.40;;;7.20;99.90;;;;;;5034045;28;20222;-71
2024/03/03 07:55:33;;;;;;;15.93;8.32;;;7.20;99.90;;;;;;5032541;28;20730;-70
2024/03/03 07:58:00;;;;;;;12.48;7.95;;;7.30;99.90;;;;;;5034489;28;20225;-71
2024/03/03 08:00:33;;;;;;;12.93;8.23;;;7.30;99.90;;;;;;5034174;28;20691;-71
2024/03/03 08:03:01;;;;;;;14.10;8.85;;;7.20;99.90;;;;;;5034394;28;20698;-71
2024/03/03 08:05:28;;;;;;;11.02;8.27;;;7.30;99.90;;;;;;5034567;28;20222;-69
2024/03/03 08:07:55;;;;;;;12.43;8.45;;;7.30;99.90;;;;;;5034259;28;20260;-72
2024/03/03 08:10:22;;;;;;;14.65;9.07;;;7.30;99.90;;;;;;5034157;28;20294;-70
2024/03/03 08:12:48;;;;;;;14.68;9.40;;;7.40;99.90;;;;;;5034318;28;20577;-70
2024/03/03 08:15:15;;;;;;;13.52;8.80;;;7.40;99.90;;;;;;5034027;28;20223;-70
2024/03/03 08:17:42;;;;;;;15.98;7.68;;;7.50;99.90;;;;;;5034365;28;20586;-69
2024/03/03 08:20:11;;;;;;;15.98;9.63;;;7.50;99.90;;;;;;5033758;28;20207;-69
2024/03/03 08:22:38;;;;;;;15.10;9.73;;;7.60;99.90;;;;;;5034059;28;20210;-69
2024/03/03 08:25:06;;;;;;;11.77;7.57;;;7.70;99.90;;;;;;5033894;28;20229;-69
2024/03/03 08:27:33;;;;;;;11.85;8.15;;;7.80;99.90;;;;;;5033864;28;20235;-69
2024/03/03 08:30:00;;;;;;;9.75;7.47;;;8.00;99.90;;;;;;5033432;28;20578;-70
2024/03/03 08:32:26;;;;;;;11.82;8.63;;;8.10;99.90;;;;;;5033746;28;20230;-69
2024/03/03 08:34:53;;;;;;;15.07;8.38;;;8.20;99.90;;;;;;5033724;28;20227;-70
2024/03/03 08:37:21;;;;;;;10.27;6.55;;;8.20;99.90;;;;;;5033430;28;20211;-69
2024/03/03 08:39:48;;;;;;;10.02;7.47;;;8.20;99.90;;;;;;5033392;28;20219;-70
2024/03/03 08:42:15;;;;;;;11.52;8.13;;;8.20;99.90;;;;;;5033399;28;20207;-70
2024/03/03 08:44:41;;;;;;;13.77;8.52;;;8.20;99.90;;;;;;5033391;28;20226;-70
2024/03/03 08:47:08;;;;;;;12.75;7.70;;;8.30;99.90;;;;;;5033373;28;20207;-70
2024/03/03 08:49:35;;;;;;;16.20;7.68;;;8.20;99.90;;;;;;5032332;28;20227;-70
2024/03/03 08:52:05;;;;;;;12.13;7.95;;;8.30;99.90;;;;;;5033490;28;20208;-70
2024/03/03 08:54:33;;;;;;;12.68;8.68;;;8.40;99.90;;;;;;5033218;28;20229;-71
2024/03/03 08:57:00;;;;;;;11.20;7.75;;;8.50;99.90;;;;;;5033364;28;20210;-70
2024/03/03 08:59:26;;;;;;;13.02;6.72;;;8.50;99.90;;;;;;5032764;28;20226;-70
2024/03/03 09:01:54;;;;;;;11.00;6.35;;;8.50;99.90;;;;;;5033365;28;20217;-70
2024/03/03 09:04:21;;;;;;;10.50;7.15;;;8.60;99.90;;;;;;5032945;28;20231;-70
2024/03/03 09:06:48;;;;;;;11.40;7.70;;;8.70;99.90;;;;;;5033159;28;20208;-70
2024/03/03 09:09:16;;;;;;;9.60;7.50;;;8.80;99.90;;;;;;5032362;28;20373;-71
2024/03/03 09:11:45;;;;;;;12.80;8.60;;;8.90;99.90;;;;;;5030786;28;20209;-71
2024/03/03 09:14:13;;;;;;;9.65;6.55;;;9.10;99.90;;;;;;5032872;28;20278;-70
2024/03/03 09:16:39;;;;;;;11.68;6.68;;;9.20;99.90;;;;;;5029183;28;20217;-70
2024/03/03 09:19:06;;;;;;;12.70;7.55;;;9.20;99.90;;;;;;5030048;28;20219;-70
2024/03/03 09:21:34;;;;;;;11.50;8.07;;;9.30;99.90;;;;;;5030933;28;20212;-71
2024/03/03 09:24:01;;;;;;;8.48;5.85;;;9.40;99.90;;;;;;5031979;28;20232;-70
2024/03/03 09:26:28;;;;;;;10.27;7.05;;;9.50;99.90;;;;;;5031449;28;20309;-71
2024/03/03 09:28:57;;;;;;;10.13;7.10;;;9.60;99.90;;;;;;5031590;28;20201;-70
2024/03/03 09:31:24;;;;;;;8.95;6.15;;;9.80;99.90;;;;;;5031505;28;20236;-71
2024/03/03 09:33:53;;;;;;;9.75;6.60;;;9.90;99.90;;;;;;5026279;28;20718;-71
2024/03/03 09:36:21;;;;;;;10.27;6.57;;;10.00;99.90;;;;;;5028405;28;20223;-71
2024/03/03 09:38:48;;;;;;;9.35;5.85;;;10.20;99.90;;;;;;5032586;28;20331;-72
2024/03/03 09:41:18;;;;;;;11.30;6.97;;;10.50;99.90;;;;;;5031969;28;20216;-70
2024/03/03 09:43:51;;;;;;;12.93;7.05;;;10.70;99.90;;;;;;5026670;28;20779;-70
2024/03/03 09:46:24;;;;;;;6.82;6.18;;;10.90;99.90;;;;;;5021519;28;20210;-70
2024/03/03 09:48:53;;;;;;;7.80;6.20;;;11.20;99.90;;;;;;5031413;28;20214;-70
2024/03/03 09:51:21;;;;;;;9.80;6.25;;;11.60;99.90;;;;;;5029009;28;20381;-71
2024/03/03 09:53:48;;;;;;;10.93;5.72;;;11.80;99.90;;;;;;5029782;28;20218;-71
2024/03/03 09:56:18;;;;;;;11.35;7.15;;;12.40;99.90;;;;;;5029052;28;20217;-71
2024/03/03 09:58:47;;;;;;;8.57;6.90;;;13.10;99.90;;;;;;5023729;28;20234;-72
2024/03/03 10:01:15;;;;;;;7.47;5.43;;;13.60;99.90;;;;;;5029074;28;20485;-72
2024/03/03 10:03:44;;;;;;;9.70;6.40;;;14.00;99.90;;;;;;5029338;28;20505;-71
2024/03/03 10:06:14;;;;;;;8.10;5.70;;;14.70;99.90;;;;;;5028371;28;20468;-71
2024/03/03 10:08:42;;;;;;;8.80;5.87;;;15.30;99.90;;;;;;5028931;28;20488;-71
2024/03/03 10:11:14;;;;;;;7.40;6.00;;;15.80;99.90;;;;;;5028722;28;20472;-71
2024/03/03 10:13:45;;;;;;;9.17;6.30;;;16.80;99.90;;;;;;5029308;28;20520;-72
2024/03/03 10:16:14;;;;;;;6.57;5.33;;;18.20;99.90;;;;;;5028262;28;20473;-72
2024/03/03 10:18:43;;;;;;;8.87;5.80;;;19.30;99.90;;;;;;5028130;28;21026;-71
2024/03/03 10:21:12;;;;;;;7.50;5.33;;;20.40;99.90;;;;;;5028323;28;20468;-71
2024/03/03 10:23:39;;;;;;;5.63;4.70;;;21.00;99.30;;;;;;5025912;28;20907;-72
2024/03/03 10:26:08;;;;;;;8.77;5.70;;;21.50;97.30;;;;;;5020054;28;20469;-72
2024/03/03 10:28:34;;;;;;;6.87;5.57;;;21.60;97.50;;;;;;5020938;28;20476;-71
2024/03/03 10:31:12;;;;;;;8.47;6.20;;;21.40;96.70;;;;;;5020069;28;20908;-72
2024/03/03 10:33:52;;;;;;;7.60;5.93;;;20.80;97.10;;;;;;5021797;28;20915;-72
2024/03/03 10:36:21;;;;;;;5.67;4.30;;;20.30;96.80;;;;;;5022319;28;20452;-71
2024/03/03 10:38:51;;;;;;;6.80;5.30;;;19.50;97.00;;;;;;5021459;28;20584;-71
2024/03/03 10:41:17;;;;;;;5.30;4.77;;;18.90;96.90;;;;;;5025030;28;20481;-71
2024/03/03 10:43:44;;;;;;;8.00;5.27;;;18.70;97.90;;;;;;5022863;28;20484;-72
2024/03/03 10:46:11;;;;;;;4.97;4.40;;;18.20;97.30;;;;;;5020390;28;20465;-71
2024/03/03 10:48:39;;;;;;;4.97;4.10;;;18.00;98.00;;;;;;5021230;28;20719;-71
2024/03/03 10:51:07;;;;;;;7.20;5.63;;;17.90;98.60;;;;;;5019473;28;20958;-72
2024/03/03 10:53:35;;;;;;;5.77;5.17;;;17.80;99.20;;;;;;5028884;28;20503;-71
2024/03/03 10:56:04;;;;;;;7.60;4.70;;;17.80;99.00;;;;;;5029620;28;20877;-71
2024/03/03 10:58:33;;;;;;;7.23;5.30;;;17.50;98.90;;;;;;5028795;28;21122;-71
2024/03/03 11:01:02;;;;;;;6.53;5.53;;;17.30;99.40;;;;;;5028802;28;20469;-71
2024/03/03 11:03:29;;;;;;;6.30;5.63;;;17.10;99.60;;;;;;5028915;28;20878;-71
2024/03/03 11:05:56;;;;;;;7.23;5.30;;;17.00;99.90;;;;;;5029329;28;20465;-71
2024/03/03 11:08:24;;;;;;;8.20;5.80;;;16.90;99.20;;;;;;5028863;28;20483;-72
2024/03/03 11:10:58;;;;;;;6.30;5.37;;;16.80;99.60;;;;;;5029317;28;20471;-71
2024/03/03 11:13:29;;;;;;;5.33;4.23;;;17.30;99.60;;;;;;5029097;28;20491;-72
2024/03/03 11:15:59;;;;;;;5.03;4.20;;;17.70;99.30;;;;;;5030091;28;20487;-72
2024/03/03 11:18:27;;;;;;;5.20;3.90;;;18.00;99.90;;;;;;5029755;28;20464;-72
2024/03/03 11:20:57;;;;;;;5.60;4.13;;;18.20;99.40;;;;;;5024875;28;20489;-72
2024/03/03 11:23:35;;;;;;;5.17;4.40;;;18.20;98.30;;;;;;5028738;28;20522;-71
2024/03/03 11:26:13;;;;;;;5.13;4.10;;;18.10;97.90;;;;;;5029816;28;20464;-72
2024/03/03 11:28:44;;;;;;;4.00;3.53;;;18.10;98.10;;;;;;5028923;28;20464;-72
2024/03/03 11:31:11;;;;;;;3.73;3.40;;;18.10;97.70;;;;;;5029535;28;20984;-71
2024/03/03 11:33:40;;;;;;;3.40;3.10;;;18.10;97.50;;;;;;5029131;28;20563;-71
2024/03/03 11:36:08;;;;;;;4.63;4.07;;;18.20;96.60;;;;;;5029915;28;20457;-71
2024/03/03 11:38:42;;;;;;;4.70;3.77;;;18.50;97.20;;;;;;5028020;28;20472;-71
2024/03/03 11:41:11;;;;;;;4.30;3.40;;;18.60;97.00;;;;;;5028327;28;20466;-72
2024/03/03 11:43:39;;;;;;;4.33;3.43;;;18.60;97.50;;;;;;5028575;28;20519;-71
2024/03/03 11:46:06;;;;;;;4.00;3.03;;;18.60;96.90;;;;;;5028983;28;20468;-73
2024/03/03 11:48:33;;;;;;;3.50;3.17;;;18.70;96.80;;;;;;5028229;28;20844;-73
2024/03/03 11:51:22;;;;;;;3.53;3.23;;;18.80;97.00;;;;;;5029147;28;20816;-73
2024/03/03 11:53:59;;;;;;;4.00;2.90;;;19.10;96.40;;;;;;5022698;28;20476;-72
2024/03/03 11:56:29;;;;;;;5.20;3.30;;;19.20;95.90;;;;;;5032921;28;21005;-73
2024/03/03 11:58:56;;;;;;;4.97;3.47;;;19.00;95.70;;;;;;5029640;28;20472;-72
2024/03/03 12:01:23;;;;;;;3.50;3.20;;;19.30;97.10;;;;;;5027906;28;20484;-72
2024/03/03 12:03:50;;;;;;;3.33;2.80;;;19.50;96.10;;;;;;5028985;28;20506;-72
2024/03/03 12:06:20;;;;;;;3.70;2.90;;;19.70;96.80;;;;;;5027087;28;20476;-72
2024/03/03 12:08:53;;;;;;;8.33;3.30;;;20.00;96.80;;;;;;5021926;28;20500;-72
2024/03/03 12:11:20;;;;;;;4.50;3.50;;;20.30;95.80;;;;;;5029018;28;20992;-71
2024/03/03 12:13:56;;;;;;;3.63;3.33;;;20.50;95.10;;;;;;5029419;28;20604;-72
2024/03/03 12:16:23;;;;;;;3.67;3.13;;;21.10;94.80;;;;;;5029067;28;20464;-73
2024/03/03 12:18:50;;;;;;;3.30;3.00;;;21.90;94.60;;;;;;5029132;28;20831;-72
2024/03/03 12:21:19;;;;;;;2.83;2.53;;;22.60;94.30;;;;;;5026868;28;20484;-72
2024/03/03 12:23:46;;;;;;;4.07;3.20;;;22.90;93.70;;;;;;5021711;28;20484;-72
2024/03/03 12:26:12;;;;;;;3.67;2.90;;;22.40;92.70;;;;;;5034046;28;20472;-72
2024/03/03 12:28:39;;;;;;;2.73;2.53;;;22.10;93.00;;;;;;5031445;28;20472;-72
2024/03/03 12:31:08;;;;;;;3.43;3.13;;;21.80;92.50;;;;;;5031514;28;20464;-72
2024/03/03 12:33:36;;;;;;;3.20;2.53;;;21.60;93.50;;;;;;5032114;28;21311;-72
2024/03/03 12:36:03;;;;;;;4.13;3.73;;;22.00;92.90;;;;;;5032871;28;20468;-73
2024/03/03 12:38:30;;;;;;;6.50;5.57;;;23.00;93.80;;;;;;5031625;28;20510;-72
2024/03/03 12:40:57;;;;;;;4.03;3.30;;;24.40;93.60;;;;;;5032661;28;20507;-72
2024/03/03 12:43:26;;;;;;;3.23;2.80;;;25.60;91.40;;;;;;5032060;28;20468;-73
2024/03/03 12:45:54;;;;;;;3.07;2.77;;;26.60;90.70;;;;;;5041133;28;20556;-73